Time;durP1;ratioP1;P1;durP2;ratioP2;P2;SDS_P1;SDS_P2;PMS_P1;PMS_P2;Temp;Humidity;BMP_temperature;BMP_pressure;BME280_temperature;BME280_humidity;BME280_pressure;Samples;Min_cycle;Max_cycle;Signal;HPM_P1;HPM_P2
2022/06/23 00:00:33;;;;;;;6.30;4.47;;;;;;;16.37;58.83;98297.98;1771366;81;25904;-59
2022/06/23 00:03:01;;;;;;;8.60;4.40;;;;;;;16.32;58.50;98302.39;1771156;81;25751;-59
2022/06/23 00:05:35;;;;;;;7.20;4.67;;;;;;;16.28;58.94;98299.56;1771611;81;26552;-59
2022/06/23 00:08:02;;;;;;;7.25;4.50;;;;;;;16.26;58.64;98294.19;1770887;81;25435;-58
2022/06/23 00:10:38;;;;;;;10.95;4.47;;;;;;;16.18;59.28;98294.61;1771983;81;27604;-59
2022/06/23 00:13:15;;;;;;;7.65;4.80;;;;;;;16.05;59.65;98298.05;1768961;81;25947;-59
2022/06/23 00:15:44;;;;;;;7.80;4.37;;;;;;;15.93;60.16;98298.38;1771383;81;25414;-59
2022/06/23 00:18:24;;;;;;;5.42;3.98;;;;;;;15.86;60.86;98298.18;1771654;81;26727;-59
2022/06/23 00:21:01;;;;;;;5.20;4.33;;;;;;;15.60;62.43;98294.61;1771449;81;25727;-59
2022/06/23 00:23:32;;;;;;;5.12;3.65;;;;;;;15.60;62.43;98294.61;1766780;81;28494;-58
2022/06/23 00:26:12;;;;;;;5.60;3.98;;;;;;;15.55;62.83;98302.58;1771566;81;26030;-60
2022/06/23 00:28:52;;;;;;;5.05;4.00;;;;;;;15.43;63.02;98300.11;1771658;81;25648;-58
2022/06/23 00:31:40;;;;;;;4.85;4.10;;;;;;;15.39;63.39;98300.61;1705603;84;25702;-60
2022/06/23 00:34:27;;;;;;;7.87;4.00;;;;;;;15.29;63.64;98305.28;1706864;84;25744;-59
2022/06/23 00:37:07;;;;;;;7.47;4.12;;;;;;;15.18;63.80;98304.98;1706714;84;27442;-59
2022/06/23 00:40:02;;;;;;;9.00;4.80;;;;;;;15.12;63.91;98308.59;1706892;84;25489;-60
2022/06/23 00:42:43;;;;;;;6.87;4.40;;;;;;;15.12;64.05;98309.97;1682925;84;25565;-60
2022/06/23 00:45:21;;;;;;;;;;;;;;;15.13;64.11;98310.75;1708023;84;26719;-59
2022/06/23 00:48:26;;;;;;;6.28;4.50;;;;;;;15.01;64.67;98315.77;1706853;84;25734;-59
2022/06/23 00:51:17;;;;;;;6.90;4.30;;;;;;;15.01;64.67;98315.77;1706533;84;27612;-58
2022/06/23 00:54:03;;;;;;;8.68;4.53;;;;;;;14.99;64.91;98316.68;1706707;84;25866;-59
2022/06/23 00:56:56;;;;;;;6.72;4.33;;;;;;;14.92;65.14;98313.16;1706689;84;25693;-59
2022/06/23 00:59:27;;;;;;;7.53;4.20;;;;;;;14.88;65.32;98319.17;1706694;84;25766;-59
2022/06/23 01:02:14;;;;;;;5.60;4.12;;;;;;;14.89;65.53;98318.00;1706732;84;25733;-59
2022/06/23 01:04:46;;;;;;;8.10;4.70;;;;;;;14.89;65.58;98319.38;1706498;84;27433;-59
2022/06/23 01:07:51;;;;;;;6.12;4.28;;;;;;;14.79;65.94;98321.48;1706602;84;25677;-59
2022/06/23 01:10:43;;;;;;;8.03;4.35;;;;;;;14.61;66.53;98322.32;1771116;81;25587;-59
2022/06/23 01:13:35;;;;;;;7.33;4.92;;;;;;;14.45;66.82;98320.07;1771554;81;25730;-60
2022/06/23 01:16:12;;;;;;;6.87;4.58;;;;;;;14.37;66.80;98328.14;1770450;81;25673;-59
2022/06/23 01:18:44;;;;;;;5.70;4.47;;;;;;;14.38;66.89;98329.73;1771639;81;29392;-59
2022/06/23 01:21:18;;;;;;;6.15;4.25;;;;;;;14.45;66.87;98326.96;1771621;81;25683;-59
2022/06/23 01:24:17;;;;;;;7.80;4.62;;;;;;;14.45;67.09;98318.69;1771853;81;25418;-60
2022/06/23 01:27:41;;;;;;;6.33;4.50;;;;;;;14.50;67.22;98325.33;1771754;81;25851;-59
2022/06/23 01:30:10;;;;;;;6.50;4.40;;;;;;;14.51;67.14;98328.33;1771662;81;25451;-59
2022/06/23 01:32:44;;;;;;;6.97;4.42;;;;;;;14.48;67.25;98328.43;1771473;81;28417;-59
2022/06/23 01:35:33;;;;;;;5.83;4.40;;;;;;;14.47;67.21;98334.30;1771573;81;25612;-59
2022/06/23 01:38:05;;;;;;;9.78;4.55;;;;;;;14.18;68.01;98335.05;1771417;81;25477;-60
2022/06/23 01:40:42;;;;;;;6.05;4.75;;;;;;;14.18;68.01;98335.05;1770951;81;25811;-59
2022/06/23 01:43:26;;;;;;;6.72;4.60;;;;;;;14.15;68.19;98325.28;1771748;81;25740;-60
2022/06/23 01:46:05;;;;;;;8.80;4.97;;;;;;;14.15;68.19;98325.28;1771730;81;28179;-60
2022/06/23 01:48:52;;;;;;;8.50;4.65;;;;;;;14.22;67.85;98327.46;1770839;81;25889;-60
2022/06/23 01:51:29;;;;;;;8.28;4.70;;;;;;;14.14;68.10;98333.33;1762536;80;25515;-60
2022/06/23 01:54:23;;;;;;;6.47;4.30;;;;;;;14.14;68.10;98333.33;1753214;81;25677;-60
2022/06/23 01:57:10;;;;;;;7.67;4.50;;;;;;;14.10;68.25;98346.19;1753531;81;25632;-60
2022/06/23 02:00:15;;;;;;;6.90;4.60;;;;;;;13.86;68.74;98347.22;1753576;81;28239;-60
2022/06/23 02:03:04;;;;;;;7.58;4.60;;;;;;;13.86;68.74;98347.22;1753284;81;26040;-60
2022/06/23 02:06:03;;;;;;;6.25;5.25;;;;;;;13.84;68.90;98348.72;1753484;81;25744;-60
2022/06/23 02:08:43;;;;;;;6.55;5.05;;;;;;;13.85;68.82;98345.63;1753485;81;25684;-59
2022/06/23 02:11:37;;;;;;;7.10;5.20;;;;;;;13.88;68.76;98353.77;1753774;81;25610;-60
2022/06/23 02:14:20;;;;;;;5.87;4.40;;;;;;;13.80;69.09;98360.42;1694650;84;27404;-60
2022/06/23 02:16:58;;;;;;;6.95;4.53;;;;;;;13.85;69.03;98358.02;1694018;84;25717;-59
2022/06/23 02:19:49;;;;;;;6.33;4.90;;;;;;;13.87;68.97;98356.27;1694726;84;25553;-59
2022/06/23 02:22:34;;;;;;;7.45;5.12;;;;;;;13.73;69.22;98360.75;1694503;84;26575;-59
2022/06/23 02:25:21;;;;;;;6.00;4.30;;;;;;;13.73;69.22;98360.75;1694381;84;25527;-60
2022/06/23 02:27:57;;;;;;;7.08;4.62;;;;;;;13.64;69.53;98364.96;1694570;84;28240;-60
2022/06/23 02:30:31;;;;;;;7.80;4.72;;;;;;;13.59;69.58;98362.45;1693898;84;25630;-60
2022/06/23 02:33:21;;;;;;;5.45;4.62;;;;;;;13.48;69.70;98362.86;1693696;84;25798;-60
2022/06/23 02:35:58;;;;;;;8.05;4.62;;;;;;;13.45;69.80;98366.86;1694597;84;26578;-60
2022/06/23 02:38:48;;;;;;;10.55;5.17;;;;;;;13.46;69.75;98362.95;1694587;84;25497;-60
2022/06/23 02:41:18;;;;;;;7.05;4.72;;;;;;;13.49;69.79;98364.45;1694346;84;28346;-61
2022/06/23 02:44:01;;;;;;;7.28;4.95;;;;;;;13.53;69.89;98371.50;1694855;84;26069;-60
2022/06/23 02:46:51;;;;;;;6.60;4.65;;;;;;;13.52;69.91;98369.87;1693906;84;25837;-60
2022/06/23 02:49:31;;;;;;;7.50;4.83;;;;;;;13.55;69.94;98372.77;1694806;84;25732;-60
2022/06/23 02:52:21;;;;;;;9.35;5.40;;;;;;;13.51;69.82;98375.16;1724590;81;25803;-60
2022/06/23 02:55:08;;;;;;;7.55;5.03;;;;;;;13.44;70.04;98378.42;1753966;81;27472;-60
2022/06/23 02:57:52;;;;;;;8.83;5.17;;;;;;;13.41;70.39;98386.80;1753764;81;25434;-60
2022/06/23 03:00:32;;;;;;;7.00;5.20;;;;;;;13.48;70.40;98386.26;1753605;81;25630;-60
2022/06/23 03:03:16;;;;;;;8.78;5.37;;;;;;;13.50;70.46;98391.45;1753804;81;26556;-60
2022/06/23 03:05:56;;;;;;;7.53;5.00;;;;;;;13.46;70.59;98395.98;1753956;81;25658;-60
2022/06/23 03:08:41;;;;;;;8.25;5.62;;;;;;;13.38;70.90;98399.05;1753496;81;27801;-60
2022/06/23 03:11:51;;;;;;;8.53;5.58;;;;;;;13.42;71.24;98393.91;1746153;81;25430;-59
2022/06/23 03:13:55;;;;;;;6.35;5.50;;;;;;;13.44;71.32;98399.07;1749714;81;25610;-59
2022/06/23 03:16:29;;;;;;;8.50;6.22;;;;;;;13.47;71.64;98403.11;1752496;81;25732;-59
2022/06/23 03:19:00;;;;;;;14.03;6.80;;;;;;;13.52;71.93;98400.16;1753537;81;25455;-59
2022/06/23 03:21:40;;;;;;;10.18;5.97;;;;;;;13.54;71.97;98406.14;1753389;81;27388;-58
2022/06/23 03:24:12;;;;;;;11.38;6.00;;;;;;;13.58;72.11;98406.27;1753748;81;25711;-59
2022/06/23 03:26:43;;;;;;;7.58;6.30;;;;;;;13.67;71.93;98409.71;1753616;81;25883;-59
2022/06/23 03:29:24;;;;;;;8.20;5.97;;;;;;;13.82;71.69;98408.28;1753814;81;25577;-59
2022/06/23 03:32:23;;;;;;;9.23;6.40;;;;;;;13.82;71.69;98408.28;1753889;81;33476;-59
2022/06/23 03:35:03;;;;;;;12.60;6.62;;;;;;;13.93;71.69;98412.73;1753670;81;27423;-59
2022/06/23 03:37:41;;;;;;;9.20;6.60;;;;;;;14.06;71.41;98421.84;1753848;81;26036;-58
2022/06/23 03:43:36;;;;;;;10.75;6.10;;;;;;;14.51;70.80;98433.88;1753400;81;25580;-58
2022/06/23 03:46:36;;;;;;;8.25;5.97;;;;;;;14.51;70.80;98433.88;1753317;81;25690;-59
2022/06/23 03:49:42;;;;;;;8.25;6.30;;;;;;;14.60;70.94;98435.73;1752261;81;27407;-59
2022/06/23 03:52:25;;;;;;;11.68;6.42;;;;;;;14.84;70.88;98434.92;1752864;81;25741;-58
2022/06/23 03:55:00;;;;;;;9.38;6.00;;;;;;;14.84;70.88;98434.92;1753268;81;25672;-59
2022/06/23 03:57:38;;;;;;;8.60;6.70;;;;;;;14.98;70.75;98444.77;1753640;81;26299;-59
2022/06/23 04:00:32;;;;;;;11.45;6.67;;;;;;;15.05;70.75;98444.41;1754264;81;25620;-59
2022/06/23 04:03:30;;;;;;;12.82;7.10;;;;;;;15.18;70.65;98448.52;1725935;81;27466;-59
2022/06/23 04:06:11;;;;;;;8.70;6.72;;;;;;;15.38;70.80;98446.72;1753685;81;25625;-59
2022/06/23 04:08:57;;;;;;;8.60;6.50;;;;;;;15.60;69.71;98446.52;1741668;81;25629;-59
2022/06/23 04:11:44;;;;;;;10.30;6.78;;;;;;;15.76;69.14;98445.15;1753587;81;26447;-59
2022/06/23 04:14:24;;;;;;;8.65;6.47;;;;;;;15.86;69.25;98448.77;1753456;81;25696;-59
2022/06/23 04:16:55;;;;;;;10.80;6.35;;;;;;;16.10;69.32;98447.05;1740389;81;27625;-59
2022/06/23 04:19:26;;;;;;;11.93;6.62;;;;;;;16.36;68.71;98455.95;1753776;81;25459;-59
2022/06/23 04:22:03;;;;;;;9.15;6.67;;;;;;;16.51;67.53;98450.99;1753303;81;25627;-59
2022/06/23 04:24:29;;;;;;;11.70;7.10;;;;;;;16.71;67.03;98453.00;1753685;81;26591;-60
2022/06/23 04:27:01;;;;;;;11.90;6.85;;;;;;;16.91;66.48;98458.00;1753606;81;25715;-59
2022/06/23 04:29:36;;;;;;;9.08;7.15;;;;;;;17.05;65.39;98457.52;1751007;81;27601;-60
2022/06/23 04:32:07;;;;;;;13.32;7.25;;;;;;;17.09;65.07;98463.95;1753196;81;25642;-60
2022/06/23 04:34:39;;;;;;;11.20;7.22;;;;;;;17.20;65.19;98462.80;1749888;81;25951;-60
2022/06/23 04:37:06;;;;;;;11.88;7.47;;;;;;;17.26;64.21;98461.92;1753276;81;25761;-60
2022/06/23 04:39:39;;;;;;;10.28;7.83;;;;;;;17.25;64.01;98466.67;1753385;81;25459;-59
2022/06/23 04:42:14;;;;;;;11.15;7.15;;;;;;;17.34;63.97;98473.38;1753595;81;27456;-60
2022/06/23 04:44:48;;;;;;;11.65;7.50;;;;;;;17.36;63.49;98473.80;1753444;81;25450;-59
2022/06/23 04:47:29;;;;;;;12.43;7.50;;;;;;;17.34;63.72;98478.10;1753639;81;25597;-59
2022/06/23 04:50:10;;;;;;;10.18;7.20;;;;;;;17.42;63.69;98482.64;1753175;81;25788;-59
2022/06/23 04:52:45;;;;;;;13.50;7.00;;;;;;;17.52;63.76;98484.00;1753299;81;25472;-59
2022/06/23 04:55:22;;;;;;;11.63;7.62;;;;;;;17.72;63.50;98493.11;1751600;81;27450;-59
2022/06/23 04:58:08;;;;;;;10.18;7.72;;;;;;;17.89;63.07;98486.89;1752026;81;26069;-59
2022/06/23 05:00:53;;;;;;;12.58;7.95;;;;;;;17.95;62.74;98488.19;1753753;81;25608;-59
2022/06/23 05:03:44;;;;;;;14.20;7.55;;;;;;;18.04;62.71;98484.59;1753559;81;25705;-60
2022/06/23 05:06:44;;;;;;;11.48;7.50;;;;;;;18.17;62.33;98490.78;1753221;81;25436;-59
2022/06/23 05:09:19;;;;;;;12.95;7.05;;;;;;;18.37;62.25;98495.48;1724159;83;27400;-60
2022/06/23 05:11:50;;;;;;;9.43;7.12;;;;;;;18.51;61.78;98500.47;1723461;83;25620;-59
2022/06/23 05:14:31;;;;;;;10.63;6.95;;;;;;;18.64;61.16;98501.05;1698831;84;25691;-59
2022/06/23 05:17:14;;;;;;;10.88;6.95;;;;;;;18.74;61.42;98503.80;1725066;83;25735;-59
2022/06/23 05:19:41;;;;;;;10.48;6.62;;;;;;;19.00;61.31;98500.80;1698169;84;25470;-59
2022/06/23 05:22:34;;;;;;;9.40;6.37;;;;;;;19.20;60.39;98510.43;1725175;83;27218;-59
2022/06/23 05:25:17;;;;;;;10.82;6.75;;;;;;;19.29;59.76;98510.34;1696842;84;25686;-60
2022/06/23 05:27:46;;;;;;;12.00;6.03;;;;;;;19.39;59.20;98521.98;1695794;84;25562;-59
2022/06/23 05:30:36;;;;;;;9.63;6.45;;;;;;;19.41;59.75;98522.41;1683163;85;25804;-59
2022/06/23 05:33:13;;;;;;;9.43;6.42;;;;;;;19.50;59.33;98520.15;1682657;85;25710;-59
2022/06/23 05:35:44;;;;;;;10.28;6.28;;;;;;;19.73;58.97;98529.54;1668175;85;28448;-59
2022/06/23 05:38:18;;;;;;;9.13;6.17;;;;;;;19.68;58.89;98529.28;1683206;85;25687;-60
2022/06/23 05:40:55;;;;;;;9.98;6.67;;;;;;;19.88;58.57;98531.31;1683148;85;25805;-59
2022/06/23 05:43:23;;;;;;;11.15;6.62;;;;;;;20.09;58.39;98531.34;1683135;85;25953;-59
2022/06/23 05:45:54;;;;;;;7.78;6.15;;;;;;;20.28;58.03;98527.58;1708171;83;25670;-59
2022/06/23 05:48:41;;;;;;;12.23;6.45;;;;;;;20.53;57.46;98531.77;1711764;83;27351;-60
2022/06/23 05:51:14;;;;;;;8.55;5.90;;;;;;;20.58;56.28;98527.83;1711473;83;26518;-60
2022/06/23 05:53:58;;;;;;;9.65;6.15;;;;;;;20.69;57.24;98527.31;1736714;82;25452;-60
2022/06/23 05:56:53;;;;;;;11.18;6.67;;;;;;;21.03;55.70;98535.55;1737872;81;26553;-59
2022/06/23 05:59:30;;;;;;;8.73;5.42;;;;;;;21.10;56.14;98537.56;1745023;81;25725;-60
2022/06/23 06:02:10;;;;;;;7.87;5.35;;;;;;;21.39;55.52;98538.34;1743218;82;27454;-60
2022/06/23 06:04:49;;;;;;;6.20;5.05;;;;;;;21.50;54.56;98538.40;1739014;81;25688;-60
2022/06/23 06:07:21;;;;;;;7.97;5.20;;;;;;;21.56;53.34;98539.01;1758436;81;25435;-59
2022/06/23 06:09:49;;;;;;;8.15;5.47;;;;;;;21.79;52.76;98537.16;1758826;81;25680;-60
2022/06/23 06:12:23;;;;;;;9.60;5.28;;;;;;;21.99;52.82;98541.00;1758449;81;25605;-60
2022/06/23 06:14:59;;;;;;;8.95;5.60;;;;;;;21.99;51.11;98544.56;1758409;81;27634;-60
2022/06/23 06:17:29;;;;;;;8.45;4.70;;;;;;;21.80;51.32;98543.73;1758074;81;25640;-60
2022/06/23 06:19:58;;;;;;;7.23;5.00;;;;;;;22.22;51.17;98551.02;1758964;81;25604;-60
2022/06/23 06:22:41;;;;;;;8.43;4.40;;;;;;;22.22;51.17;98551.02;1759002;81;26578;-60
2022/06/23 06:25:25;;;;;;;8.90;4.58;;;;;;;22.24;50.93;98549.41;1758583;81;25680;-60
2022/06/23 06:27:55;;;;;;;9.55;4.90;;;;;;;22.52;51.42;98549.26;1758306;81;28309;-60
2022/06/23 06:30:32;;;;;;;9.53;4.53;;;;;;;22.74;51.64;98553.45;1759107;81;34784;-60
2022/06/23 06:32:58;;;;;;;7.45;4.72;;;;;;;22.83;50.05;98554.47;1758995;81;25625;-60
2022/06/23 06:35:43;;;;;;;6.40;4.15;;;;;;;22.85;49.60;98565.25;1757256;81;26394;-60
2022/06/23 06:38:16;;;;;;;5.45;4.20;;;;;;;22.91;49.72;98558.06;1758024;81;25435;-60
2022/06/23 06:40:46;;;;;;;7.75;4.20;;;;;;;23.08;50.00;98564.80;1758765;81;27416;-60
2022/06/23 06:43:25;;;;;;;;;;;;;;;23.41;49.92;98563.38;1761070;81;26228;-60
2022/06/23 06:45:52;;;;;;;7.53;4.00;;;;;;;23.62;46.47;98564.50;1759008;81;25566;-59
2022/06/23 06:48:23;;;;;;;5.95;3.90;;;;;;;23.55;47.82;98565.34;1758763;81;25874;-60
2022/06/23 06:50:55;;;;;;;5.55;3.70;;;;;;;23.80;47.59;98565.23;1758494;81;25705;-60
2022/06/23 06:53:35;;;;;;;4.80;3.58;;;;;;;23.96;44.89;98563.16;1762988;81;27426;-60
2022/06/23 06:56:21;;;;;;;7.33;3.00;;;;;;;23.90;46.03;98561.40;1770163;80;25743;-59
2022/06/23 06:59:08;;;;;;;10.25;3.22;;;;;;;24.17;46.77;98565.88;1769921;81;25430;-60
2022/06/23 07:01:38;;;;;;;5.72;3.22;;;;;;;24.52;44.27;98561.06;1769992;80;25946;-60
2022/06/23 07:04:13;;;;;;;5.08;2.98;;;;;;;24.42;44.46;98562.13;1770225;81;25568;-60
2022/06/23 07:06:47;;;;;;;7.03;3.10;;;;;;;24.46;44.15;98565.51;1770032;80;27865;-60
2022/06/23 07:09:45;;;;;;;9.95;3.40;;;;;;;24.57;43.36;98564.81;1769781;81;25684;-60
2022/06/23 07:12:19;;;;;;;7.53;3.10;;;;;;;24.72;44.62;98568.29;1769655;80;25649;-60
2022/06/23 07:15:06;;;;;;;7.28;3.15;;;;;;;25.05;42.14;98567.45;1770201;80;25757;-60
2022/06/23 07:17:49;;;;;;;6.55;3.27;;;;;;;25.14;42.40;98573.97;1770061;80;25435;-60
2022/06/23 07:20:33;;;;;;;6.62;3.83;;;;;;;25.38;42.37;98572.71;1769110;81;27887;-59
2022/06/23 07:23:10;;;;;;;4.85;3.05;;;;;;;25.62;42.25;98576.30;1770251;80;25685;-59
2022/06/23 07:25:42;;;;;;;6.92;3.17;;;;;;;25.69;41.96;98572.00;1770140;80;25436;-59
2022/06/23 07:28:23;;;;;;;13.53;3.72;;;;;;;26.02;41.88;98580.80;1768982;81;26506;-59
2022/06/23 07:30:57;;;;;;;3.27;2.60;;;;;;;26.26;40.43;98581.48;1766409;81;25645;-59
2022/06/23 07:33:44;;;;;;;5.20;2.58;;;;;;;26.61;40.56;98579.98;1767914;80;26886;-59
2022/06/23 07:37:11;;;;;;;5.47;3.12;;;;;;;26.57;39.35;98585.69;1769842;80;25703;-59
2022/06/23 07:39:41;;;;;;;5.75;3.08;;;;;;;26.72;39.03;98589.66;1769868;81;25458;-59
2022/06/23 07:42:18;;;;;;;8.30;2.90;;;;;;;26.98;39.93;98588.63;1770226;81;25885;-59
2022/06/23 07:44:56;;;;;;;4.28;2.92;;;;;;;27.45;40.03;98589.84;1769489;80;25708;-59
2022/06/23 07:47:23;;;;;;;5.30;2.70;;;;;;;27.71;36.86;98592.36;1769791;80;27408;-59
2022/06/23 07:49:50;;;;;;;4.92;2.40;;;;;;;27.54;36.32;98599.89;1769722;81;25736;-59
2022/06/23 07:52:19;;;;;;;3.45;2.22;;;;;;;27.72;37.46;98601.61;1769338;80;25590;-59
2022/06/23 07:54:49;;;;;;;3.60;2.00;;;;;;;28.05;36.21;98592.66;1767037;80;26643;-59
2022/06/23 07:57:16;;;;;;;3.47;1.90;;;;;;;28.10;33.09;98597.59;1766844;80;25584;-59
2022/06/23 08:00:00;;;;;;;2.05;1.50;;;;;;;27.82;34.32;98600.59;1766802;80;27444;-59
2022/06/23 08:02:34;;;;;;;2.05;1.37;;;;;;;28.07;34.14;98596.45;1766807;81;25895;-58
2022/06/23 08:05:24;;;;;;;3.20;2.00;;;;;;;28.25;32.25;98596.05;1766942;80;25398;-59
2022/06/23 08:07:51;;;;;;;4.85;2.10;;;;;;;27.86;33.18;98599.89;1766535;80;25781;-59
2022/06/23 08:10:23;;;;;;;2.62;2.15;;;;;;;27.68;34.04;98594.62;1766343;80;25442;-59
2022/06/23 08:13:13;;;;;;;2.60;1.85;;;;;;;27.68;34.47;98596.84;1766940;80;28270;-59
2022/06/23 08:19:03;;;;;;;3.42;2.08;;;;;;;27.91;33.89;98594.37;1703493;84;25568;-59
2022/06/23 08:21:50;;;;;;;3.35;1.90;;;;;;;27.83;33.11;98595.12;1703495;84;25867;-59
2022/06/23 08:24:25;;;;;;;3.67;2.00;;;;;;;27.79;34.13;98596.63;1703508;84;25799;-59
2022/06/23 08:26:59;;;;;;;3.80;2.10;;;;;;;27.79;33.96;98588.78;1703518;84;27348;-59
2022/06/23 08:29:31;;;;;;;3.17;1.45;;;;;;;28.22;33.84;98593.31;1702725;84;25676;-59
2022/06/23 08:32:00;;;;;;;2.92;1.60;;;;;;;28.55;33.18;98596.20;1703808;84;25709;-59
2022/06/23 08:34:29;;;;;;;3.62;1.95;;;;;;;28.43;32.05;98601.31;1703792;84;25801;-60
2022/06/23 08:37:03;;;;;;;2.40;1.52;;;;;;;28.16;32.24;98597.27;1703804;84;25744;-60
2022/06/23 08:39:56;;;;;;;5.03;1.60;;;;;;;28.15;33.73;98602.73;1743910;81;28155;-60
2022/06/23 08:42:34;;;;;;;3.92;1.50;;;;;;;28.35;32.61;98601.92;1750778;81;25858;-59
2022/06/23 08:45:29;;;;;;;2.10;1.37;;;;;;;28.37;31.36;98604.47;1749880;81;25720;-58
2022/06/23 08:48:25;;;;;;;1.95;1.45;;;;;;;28.03;31.69;98599.94;1701265;84;25609;-58
2022/06/23 08:51:20;;;;;;;3.70;1.60;;;;;;;27.60;31.43;98612.23;1705113;84;25487;-59
2022/06/23 08:54:04;;;;;;;2.77;1.47;;;;;;;27.58;31.72;98610.48;1686630;84;27862;-58
2022/06/23 08:56:41;;;;;;;2.27;1.80;;;;;;;28.08;32.96;98607.09;1680797;85;25746;-59
2022/06/23 08:59:19;;;;;;;2.67;1.65;;;;;;;28.37;30.39;98610.11;1680899;85;25646;-59
2022/06/23 09:02:06;;;;;;;4.90;2.20;;;;;;;28.54;31.39;98613.75;1680908;85;25688;-59
2022/06/23 09:05:04;;;;;;;3.87;1.87;;;;;;;28.54;31.79;98607.31;1681058;85;25744;-58
2022/06/23 09:07:59;;;;;;;3.27;1.90;;;;;;;28.88;31.23;98603.28;1681120;85;27428;-58
2022/06/23 09:11:15;;;;;;;2.75;1.60;;;;;;;29.08;30.88;98611.48;1680828;85;25507;-59
2022/06/23 09:14:38;;;;;;;3.10;1.57;;;;;;;29.11;29.08;98605.75;1681110;85;25515;-58
2022/06/23 09:17:28;;;;;;;2.92;1.67;;;;;;;29.10;30.35;98606.20;1680904;85;25745;-59
2022/06/23 09:20:12;;;;;;;2.90;1.80;;;;;;;29.22;29.71;98605.48;1681374;85;25468;-58
2022/06/23 09:23:07;;;;;;;3.75;1.82;;;;;;;29.13;31.33;98601.86;1680861;85;55968;-58
2022/06/23 09:25:51;;;;;;;3.02;2.10;;;;;;;29.34;30.03;98598.91;1680928;85;25696;-59
2022/06/23 09:28:41;;;;;;;3.77;2.00;;;;;;;29.00;30.31;98594.75;1680967;85;25703;-59
2022/06/23 09:31:19;;;;;;;;;;;;;;;29.05;30.84;98600.47;1730414;82;25831;-58
2022/06/23 09:33:59;;;;;;;2.85;2.12;;;;;;;29.17;31.25;98601.16;1738609;82;25601;-58
2022/06/23 09:37:07;;;;;;;2.00;1.72;;;;;;;29.41;29.11;98603.75;1736430;82;27466;-59
2022/06/23 09:39:41;;;;;;;4.35;2.40;;;;;;;29.31;30.20;98606.25;1738817;82;25892;-59
2022/06/23 09:42:32;;;;;;;4.25;2.22;;;;;;;29.35;28.95;98606.13;1739041;82;25705;-59
2022/06/23 09:45:23;;;;;;;4.15;2.10;;;;;;;29.15;30.21;98605.04;1733313;82;25944;-59
2022/06/23 09:48:26;;;;;;;3.17;2.10;;;;;;;29.26;29.38;98600.53;1626695;88;25507;-59
2022/06/23 09:51:41;;;;;;;2.10;1.90;;;;;;;29.22;28.94;98605.48;1626382;88;28349;-59
2022/06/23 09:54:49;;;;;;;4.05;2.27;;;;;;;29.25;29.78;98603.79;1642257;86;25901;-59
2022/06/23 09:57:33;;;;;;;2.70;2.00;;;;;;;29.45;29.16;98602.25;1677815;85;25641;-59
2022/06/23 10:00:04;;;;;;;3.33;1.95;;;;;;;29.52;27.86;98605.48;1676962;85;26419;-59
2022/06/23 10:02:36;;;;;;;2.95;2.05;;;;;;;29.74;28.56;98609.15;1678145;85;25705;-59
2022/06/23 10:05:20;;;;;;;2.80;1.95;;;;;;;30.42;27.79;98606.34;1677073;85;27485;-60
2022/06/23 10:07:57;;;;;;;3.05;1.80;;;;;;;30.46;27.51;98603.41;1672245;85;27263;-60
2022/06/23 10:11:01;;;;;;;3.90;1.92;;;;;;;30.16;27.24;98599.84;1678021;85;25646;-59
2022/06/23 10:13:49;;;;;;;3.30;1.92;;;;;;;29.87;27.07;98608.56;1678143;85;25849;-59
2022/06/23 10:16:50;;;;;;;2.72;1.67;;;;;;;29.76;27.20;98610.91;1677565;85;25668;-59
2022/06/23 10:19:25;;;;;;;3.25;1.40;;;;;;;30.46;28.06;98598.37;1668857;85;27556;-59
2022/06/23 10:22:39;;;;;;;2.02;1.70;;;;;;;30.52;26.51;98603.02;1676051;84;25649;-59
2022/06/23 10:25:35;;;;;;;2.12;1.92;;;;;;;30.90;27.63;98599.20;1698357;83;25784;-59
2022/06/23 10:28:57;;;;;;;4.78;1.70;;;;;;;30.93;26.19;98603.34;1732565;82;26526;-60
2022/06/23 10:31:31;;;;;;;3.15;1.80;;;;;;;31.10;26.93;98595.30;1757705;81;25407;-59
2022/06/23 10:34:22;;;;;;;3.50;1.87;;;;;;;30.46;27.07;98603.41;1642072;87;27409;-58
2022/06/23 10:37:18;;;;;;;4.20;1.98;;;;;;;30.26;28.17;98599.39;1642305;87;25903;-59
2022/06/23 10:40:08;;;;;;;1.90;1.62;;;;;;;30.19;27.35;98604.63;1643487;87;25815;-59
2022/06/23 10:42:50;;;;;;;;;;;;;;;29.93;27.72;98604.55;1645678;87;25974;-59
2022/06/23 10:45:43;;;;;;;2.60;1.72;;;;;;;30.41;27.10;98596.91;1642994;87;25717;-59
2022/06/23 10:48:50;;;;;;;2.12;1.70;;;;;;;30.98;26.99;98596.92;1643200;87;27438;-59
2022/06/23 10:51:49;;;;;;;3.12;1.95;;;;;;;31.17;24.69;98598.68;1642818;87;25677;-59
2022/06/23 10:54:46;;;;;;;2.37;1.80;;;;;;;31.72;26.02;98593.17;1595699;88;25751;-59
2022/06/23 10:57:29;;;;;;;2.35;1.57;;;;;;;31.82;26.28;98593.39;1592478;90;25813;-59
2022/06/23 11:00:10;;;;;;;4.62;1.92;;;;;;;32.18;24.53;98591.27;1592336;90;25758;-59
2022/06/23 11:03:09;;;;;;;11.28;8.98;;;;;;;31.73;25.00;98587.66;1593147;90;27395;-59
2022/06/23 11:05:49;;;;;;;4.72;2.30;;;;;;;31.16;24.93;98580.74;1592806;90;25586;-59
2022/06/23 11:08:43;;;;;;;2.77;1.70;;;;;;;31.53;25.26;98588.16;1587362;90;25516;-59
2022/06/23 11:11:41;;;;;;;3.77;1.82;;;;;;;32.09;25.21;98580.66;1607443;87;25716;-59
2022/06/23 11:14:37;;;;;;;2.77;1.87;;;;;;;32.20;25.21;98582.30;1639037;87;26119;-60
2022/06/23 11:17:45;;;;;;;3.05;1.72;;;;;;;32.25;23.97;98590.18;1636979;87;27514;-60
2022/06/23 11:20:29;;;;;;;2.90;1.90;;;;;;;31.41;25.26;98589.01;1637462;87;25738;-60
2022/06/23 11:23:16;;;;;;;2.77;1.70;;;;;;;31.35;25.98;98585.16;1637139;87;25694;-59
2022/06/23 11:25:53;;;;;;;2.70;2.10;;;;;;;31.34;25.58;98581.52;1637418;87;25726;-59
2022/06/23 11:28:28;;;;;;;4.37;1.98;;;;;;;31.65;27.18;98569.52;1637700;87;25836;-60
2022/06/23 11:31:20;;;;;;;3.95;2.00;;;;;;;31.31;25.21;98571.12;1653469;85;28281;-60
2022/06/23 11:34:01;;;;;;;3.80;2.00;;;;;;;31.33;26.00;98573.48;1676682;85;25744;-60
2022/06/23 11:36:49;;;;;;;4.08;1.90;;;;;;;31.60;24.79;98582.08;1676845;85;25766;-59
2022/06/23 11:39:39;;;;;;;3.08;1.87;;;;;;;31.56;24.76;98576.53;1676980;85;25790;-60
2022/06/23 11:42:50;;;;;;;3.58;1.60;;;;;;;31.52;25.20;98578.72;1670217;85;25704;-59
2022/06/23 11:45:30;;;;;;;2.47;1.90;;;;;;;32.00;25.66;98576.37;1634538;86;28167;-60
2022/06/23 11:48:29;;;;;;;4.50;1.90;;;;;;;31.23;24.83;98575.47;1653305;86;25513;-60
2022/06/23 11:51:10;;;;;;;4.80;2.58;;;;;;;30.88;25.97;98576.26;1652745;86;25735;-60
2022/06/23 11:54:07;;;;;;;2.00;1.60;;;;;;;31.10;25.57;98575.50;1663766;84;25823;-60
2022/06/23 11:57:03;;;;;;;3.87;1.62;;;;;;;31.12;24.87;98573.81;1710784;83;25699;-59
2022/06/23 11:59:44;;;;;;;2.62;1.60;;;;;;;31.09;24.51;98574.72;1710569;83;27933;-57
2022/06/23 12:02:11;;;;;;;2.35;1.62;;;;;;;31.65;24.55;98573.77;1709558;83;27145;-58
2022/06/23 12:05:01;;;;;;;2.77;1.50;;;;;;;31.91;24.17;98567.95;1710436;83;25476;-58
2022/06/23 12:07:59;;;;;;;3.65;1.80;;;;;;;32.34;23.99;98568.96;1709982;83;26069;-57
2022/06/23 12:10:29;;;;;;;4.08;2.10;;;;;;;32.50;23.96;98563.70;1710610;83;25684;-58
2022/06/23 12:13:01;;;;;;;3.67;1.87;;;;;;;32.00;24.69;98557.96;1710639;83;27785;-58
2022/06/23 12:15:36;;;;;;;3.15;1.95;;;;;;;32.53;24.92;98559.13;1710555;83;26173;-58
2022/06/23 12:18:13;;;;;;;2.12;1.50;;;;;;;32.96;22.77;98560.00;1710519;83;25734;-58
2022/06/23 12:21:21;;;;;;;4.40;1.80;;;;;;;32.83;23.60;98561.55;1715152;83;25816;-58
2022/06/23 12:23:55;;;;;;;4.85;2.08;;;;;;;32.72;24.31;98554.93;1734279;82;25683;-59
2022/06/23 12:26:29;;;;;;;2.12;1.55;;;;;;;33.58;23.15;98565.22;1733608;82;27594;-59
2022/06/23 12:29:16;;;;;;;2.47;1.80;;;;;;;33.79;21.95;98562.05;1734305;82;25604;-59
2022/06/23 12:32:11;;;;;;;2.25;1.70;;;;;;;33.60;22.38;98556.25;1756108;81;25586;-59
2022/06/23 12:34:48;;;;;;;4.40;1.70;;;;;;;34.21;21.85;98551.21;1755901;81;25813;-59
2022/06/23 12:37:52;;;;;;;4.10;1.90;;;;;;;34.59;22.20;98548.20;1701072;84;25523;-59
2022/06/23 12:40:39;;;;;;;3.80;1.60;;;;;;;34.61;22.43;98538.52;1700611;84;27567;-60
2022/06/23 12:43:13;;;;;;;4.33;2.20;;;;;;;34.59;22.00;98541.08;1700371;84;25803;-59
2022/06/23 12:45:51;;;;;;;2.72;1.72;;;;;;;34.30;22.28;98546.11;1700636;84;25741;-59
2022/06/23 12:48:28;;;;;;;2.55;1.80;;;;;;;34.37;21.96;98541.52;1700543;84;25808;-59
2022/06/23 12:51:43;;;;;;;3.17;1.90;;;;;;;34.07;22.79;98536.25;1700998;84;25683;-59
2022/06/23 12:54:40;;;;;;;3.37;1.95;;;;;;;34.43;22.72;98531.69;1699539;84;27448;-59